sensor_id;sensor_type;location;lat;lon;timestamp;P1;durP1;ratioP1;P2;durP2;ratioP2
76837;SDS011;65797;47.352;8.164;2023-08-01T00:00:49;10.43;;;7.53;;
76837;SDS011;65797;47.352;8.164;2023-08-01T00:03:15;9.03;;;5.23;;
76837;SDS011;65797;47.352;8.164;2023-08-01T00:05:41;6.90;;;5.20;;
76837;SDS011;65797;47.352;8.164;2023-08-01T00:08:12;7.10;;;5.10;;
76837;SDS011;65797;47.352;8.164;2023-08-01T00:10:41;7.40;;;6.00;;
76837;SDS011;65797;47.352;8.164;2023-08-01T00:13:07;10.90;;;6.30;;
76837;SDS011;65797;47.352;8.164;2023-08-01T00:15:34;6.13;;;5.50;;
76837;SDS011;65797;47.352;8.164;2023-08-01T00:18:00;6.37;;;4.33;;
76837;SDS011;65797;47.352;8.164;2023-08-01T00:23:01;7.30;;;5.47;;
76837;SDS011;65797;47.352;8.164;2023-08-01T00:25:26;7.37;;;4.97;;
76837;SDS011;65797;47.352;8.164;2023-08-01T00:27:52;5.53;;;4.20;;
76837;SDS011;65797;47.352;8.164;2023-08-01T00:30:18;8.93;;;4.90;;
76837;SDS011;65797;47.352;8.164;2023-08-01T00:32:44;7.10;;;4.50;;
76837;SDS011;65797;47.352;8.164;2023-08-01T00:35:09;6.20;;;4.17;;
76837;SDS011;65797;47.352;8.164;2023-08-01T00:37:35;4.87;;;3.90;;
76837;SDS011;65797;47.352;8.164;2023-08-01T00:40:02;6.07;;;3.73;;
76837;SDS011;65797;47.352;8.164;2023-08-01T00:42:28;5.87;;;3.20;;
76837;SDS011;65797;47.352;8.164;2023-08-01T00:44:54;3.70;;;3.03;;
76837;SDS011;65797;47.352;8.164;2023-08-01T00:47:19;3.83;;;2.90;;
76837;SDS011;65797;47.352;8.164;2023-08-01T00:49:45;5.33;;;3.53;;
76837;SDS011;65797;47.352;8.164;2023-08-01T00:52:11;4.90;;;3.10;;
76837;SDS011;65797;47.352;8.164;2023-08-01T00:54:36;4.70;;;3.50;;
76837;SDS011;65797;47.352;8.164;2023-08-01T00:57:03;2.57;;;2.37;;
76837;SDS011;65797;47.352;8.164;2023-08-01T00:59:29;7.67;;;3.70;;
76837;SDS011;65797;47.352;8.164;2023-08-01T01:01:55;3.77;;;2.70;;
76837;SDS011;65797;47.352;8.164;2023-08-01T01:04:21;3.60;;;2.90;;
76837;SDS011;65797;47.352;8.164;2023-08-01T01:06:49;6.77;;;3.53;;
76837;SDS011;65797;47.352;8.164;2023-08-01T01:11:56;4.07;;;2.80;;
76837;SDS011;65797;47.352;8.164;2023-08-01T01:14:22;4.17;;;2.47;;
76837;SDS011;65797;47.352;8.164;2023-08-01T01:16:47;4.40;;;2.80;;
76837;SDS011;65797;47.352;8.164;2023-08-01T01:19:13;6.77;;;2.63;;
76837;SDS011;65797;47.352;8.164;2023-08-01T01:24:13;5.47;;;3.63;;
76837;SDS011;65797;47.352;8.164;2023-08-01T01:26:41;3.43;;;2.50;;
76837;SDS011;65797;47.352;8.164;2023-08-01T01:29:08;3.20;;;2.60;;
76837;SDS011;65797;47.352;8.164;2023-08-01T01:31:35;3.77;;;3.37;;
76837;SDS011;65797;47.352;8.164;2023-08-01T04:28:47;8.03;;;3.33;;
76837;SDS011;65797;47.352;8.164;2023-08-01T04:33:48;5.50;;;3.33;;
76837;SDS011;65797;47.352;8.164;2023-08-01T04:36:14;3.60;;;2.70;;
76837;SDS011;65797;47.352;8.164;2023-08-01T04:38:40;5.80;;;3.07;;
76837;SDS011;65797;47.352;8.164;2023-08-01T04:41:05;4.40;;;3.20;;
76837;SDS011;65797;47.352;8.164;2023-08-01T04:43:31;4.20;;;2.87;;
76837;SDS011;65797;47.352;8.164;2023-08-01T04:45:57;4.27;;;3.67;;
76837;SDS011;65797;47.352;8.164;2023-08-01T04:48:22;4.90;;;3.87;;
76837;SDS011;65797;47.352;8.164;2023-08-01T04:50:48;5.80;;;3.40;;
76837;SDS011;65797;47.352;8.164;2023-08-01T04:53:14;5.30;;;3.60;;
76837;SDS011;65797;47.352;8.164;2023-08-01T13:22:59;2.63;;;1.63;;
76837;SDS011;65797;47.352;8.164;2023-08-01T13:25:25;1.83;;;1.73;;
76837;SDS011;65797;47.352;8.164;2023-08-01T13:27:50;4.83;;;3.37;;
76837;SDS011;65797;47.352;8.164;2023-08-01T13:30:16;1.47;;;1.37;;
76837;SDS011;65797;47.352;8.164;2023-08-01T13:32:43;1.80;;;1.70;;
76837;SDS011;65797;47.352;8.164;2023-08-01T14:19:14;3.97;;;2.20;;
76837;SDS011;65797;47.352;8.164;2023-08-01T14:32:01;4.47;;;2.50;;
76837;SDS011;65797;47.352;8.164;2023-08-01T18:06:56;1.10;;;1.10;;
